Time;durP1;ratioP1;P1;durP2;ratioP2;P2;SDS_P1;SDS_P2;PMS_P1;PMS_P2;Temp;Humidity;BMP_temperature;BMP_pressure;BME280_temperature;BME280_humidity;BME280_pressure;Samples;Min_cycle;Max_cycle;Signal;HPM_P1;HPM_P2
2022/05/01 00:02:17;;;;;;;;;;;;;;;;;;2217101;66;1179;-65
2022/05/01 00:04:50;;;;;;;;;;;;;;;;;;2217743;59;1186;-65
2022/05/01 00:07:23;;;;;;;;;;;;;;;;;;2217357;58;1830;-65
2022/05/01 00:09:56;;;;;;;;;;;;;;;;;;2217080;66;1941;-64
2022/05/01 00:12:32;;;;;;;;;;;;;;;;;;2217549;58;1261;-65
2022/05/01 00:15:06;;;;;;;;;;;;;;;;;;2216370;59;1188;-65
2022/05/01 00:17:39;;;;;;;;;;;;;;;;;;2218350;66;1248;-65
2022/05/01 00:20:14;;;;;;;;;;;;;;;;;;2217566;58;1564;-65
2022/05/01 00:22:47;;;;;;;;;;;;;;;;;;2217047;58;1684;-65
2022/05/01 00:25:20;;;;;;;;;;;;;;;;;;2217291;59;1391;-65
2022/05/01 00:27:57;;;;;;;;;;;;;;;;;;2216480;58;1925;-65
2022/05/01 00:30:30;;;;;;;;;;;;;;;;;;2217761;66;1228;-65
2022/05/01 00:38:41;;;;;;;;;;;;;;;;;;2217473;66;1206;-65
2022/05/01 00:41:15;;;;;;;;;;;;;;;;;;2218155;59;1301;-65
2022/05/01 00:44:01;;;;;;;;;;;;;;;;;;2216816;58;1264;-65
2022/05/01 00:46:35;;;;;;;;;;;;;;;;;;2217882;66;1145;-65
2022/05/01 00:49:11;;;;;;;;;;;;;;;;;;2217054;58;1943;-65
2022/05/01 00:51:47;;;;;;;;;;;;;;;;;;2217291;66;1192;-65
2022/05/01 00:54:21;;;;;;;;;;;;;;;;;;2216915;58;1670;-65
2022/05/01 00:56:56;;;;;;;;;;;;;;;;;;2216995;59;1356;-65
2022/05/01 00:59:32;;;;;;;;;;;;;;;;;;2216149;58;1627;-65
2022/05/01 01:02:06;;;;;;;;;;;;;;;;;;2217499;66;1085;-65
2022/05/01 01:04:39;;;;;;;;;;;;;;;;;;2217359;59;1179;-65
2022/05/01 01:07:14;;;;;;;;;;;;;;;;;;2217288;58;1795;-65
2022/05/01 01:09:47;;;;;;;;;;;;;;;;;;2216598;59;1933;-65
2022/05/01 01:15:15;;;;;;;;;;;;;;;;;;2216989;66;1060;-65
2022/05/01 01:17:52;;;;;;;;;;;;;;;;;;2217685;66;1312;-65
2022/05/01 01:20:28;;;;;;;;;;;;;;;;;;2216860;58;1508;-65
2022/05/01 01:23:04;;;;;;;;;;;;;;;;;;2217166;59;1332;-65
2022/05/01 01:25:37;;;;;;;;;;;;;;;;;;2217356;59;1287;-65
2022/05/01 01:28:11;;;;;;;;;;;;;;;;;;2217046;58;1987;-65
2022/05/01 01:33:36;;;;;;;;;;;;;;;;;;2217582;66;1036;-65
2022/05/01 01:36:09;;;;;;;;;;;;;;;;;;2217805;59;1119;-65
2022/05/01 01:38:45;;;;;;;;;;;;;;;;;;2217599;66;1175;-65
2022/05/01 01:41:21;;;;;;;;;;;;;;;;;;2217672;59;1222;-65
2022/05/01 01:43:55;;;;;;;;;;;;;;;;;;2217533;58;1268;-65
2022/05/01 01:46:29;;;;;;;;;;;;;;;;;;2217576;66;1102;-65
2022/05/01 01:49:02;;;;;;;;;;;;;;;;;;2213454;59;1943;-65
2022/05/01 01:51:35;;;;;;;;;;;;;;;;;;2217294;66;1097;-65
2022/05/01 01:54:11;;;;;;;;;;;;;;;;;;2216979;58;1526;-65
2022/05/01 01:56:45;;;;;;;;;;;;;;;;;;2217175;59;1406;-65
2022/05/01 01:59:18;;;;;;;;;;;;;;;;;;2217451;58;1568;-65
2022/05/01 02:01:51;;;;;;;;;;;;;;;;;;2217312;66;1154;-64
2022/05/01 02:04:24;;;;;;;;;;;;;;;;;;2216855;66;1219;-65
2022/05/01 02:06:57;;;;;;;;;;;;;;;;;;2213613;58;1960;-65
2022/05/01 02:09:37;;;;;;;;;;;;;;;;;;2216596;66;1983;-65
2022/05/01 02:12:10;;;;;;;;;;;;;;;;;;2216593;59;1262;-65
2022/05/01 02:14:44;;;;;;;;;;;;;;;;;;2217229;66;1220;-65
2022/05/01 02:17:17;;;;;;;;;;;;;;;;;;2216914;58;1612;-65
2022/05/01 02:19:50;;;;;;;;;;;;;;;;;;2215816;59;1251;-65
2022/05/01 02:22:24;;;;;;;;;;;;;;;;;;2216847;59;1744;-65
2022/05/01 02:25:00;;;;;;;;;;;;;;;;;;2216592;59;1120;-65
2022/05/01 02:27:33;;;;;;;;;;;;;;;;;;2217079;58;1598;-65
2022/05/01 02:30:07;;;;;;;;;;;;;;;;;;2217429;59;1984;-65
2022/05/01 02:32:40;;;;;;;;;;;;;;;;;;2216657;59;1464;-65
2022/05/01 02:35:13;;;;;;;;;;;;;;;;;;2216999;59;1175;-65
2022/05/01 02:37:47;;;;;;;;;;;;;;;;;;2216879;66;1265;-65
2022/05/01 02:40:22;;;;;;;;;;;;;;;;;;2216290;66;1244;-65
2022/05/01 02:42:56;;;;;;;;;;;;;;;;;;2216841;66;1132;-65
2022/05/01 02:45:30;;;;;;;;;;;;;;;;;;2216712;58;1497;-65
2022/05/01 02:48:03;;;;;;;;;;;;;;;;;;2216276;58;1915;-65
2022/05/01 02:50:36;;;;;;;;;;;;;;;;;;2215987;58;1943;-65
2022/05/01 02:53:09;;;;;;;;;;;;;;;;;;2216507;58;1435;-65
2022/05/01 02:55:45;;;;;;;;;;;;;;;;;;2217006;58;1485;-65
2022/05/01 02:58:18;;;;;;;;;;;;;;;;;;2217029;58;2048;-65
2022/05/01 03:00:51;;;;;;;;;;;;;;;;;;2216649;66;1125;-65
2022/05/01 03:03:24;;;;;;;;;;;;;;;;;;2216867;66;1184;-65
2022/05/01 03:05:58;;;;;;;;;;;;;;;;;;2217278;58;1461;-65
2022/05/01 03:08:31;;;;;;;;;;;;;;;;;;2216848;58;1743;-65
2022/05/01 03:11:08;;;;;;;;;;;;;;;;;;2216960;66;1923;-65
2022/05/01 03:13:41;;;;;;;;;;;;;;;;;;2217411;58;1526;-65
2022/05/01 03:16:14;;;;;;;;;;;;;;;;;;2217957;66;1233;-64
2022/05/01 03:24:25;;;;;;;;;;;;;;;;;;2217046;66;1064;-64
2022/05/01 03:27:01;;;;;;;;;;;;;;;;;;2216826;58;1692;-65
2022/05/01 03:29:34;;;;;;;;;;;;;;;;;;2217260;58;2058;-65
2022/05/01 03:32:08;;;;;;;;;;;;;;;;;;2218465;66;1162;-65
2022/05/01 03:34:41;;;;;;;;;;;;;;;;;;2216883;66;1128;-65
2022/05/01 03:37:15;;;;;;;;;;;;;;;;;;2217037;66;1400;-65
2022/05/01 03:39:48;;;;;;;;;;;;;;;;;;2217212;59;1278;-65
2022/05/01 03:42:24;;;;;;;;;;;;;;;;;;2217353;59;1281;-65
2022/05/01 03:44:57;;;;;;;;;;;;;;;;;;2217446;59;1263;-65
2022/05/01 03:47:32;;;;;;;;;;;;;;;;;;2217040;58;1727;-65
2022/05/01 03:50:06;;;;;;;;;;;;;;;;;;2216053;66;1930;-65
2022/05/01 03:52:39;;;;;;;;;;;;;;;;;;2217558;66;1136;-65
2022/05/01 03:55:12;;;;;;;;;;;;;;;;;;2217412;58;1534;-65
2022/05/01 03:57:48;;;;;;;;;;;;;;;;;;2217754;58;2049;-65
2022/05/01 04:00:21;;;;;;;;;;;;;;;;;;2217972;59;1231;-65
2022/05/01 04:02:54;;;;;;;;;;;;;;;;;;2217795;58;1179;-68
2022/05/01 04:05:28;;;;;;;;;;;;;;;;;;2218139;66;1080;-68
2022/05/01 04:08:02;;;;;;;;;;;;;;;;;;2217248;58;1765;-67
2022/05/01 04:10:35;;;;;;;;;;;;;;;;;;2217414;66;1929;-67
2022/05/01 04:13:11;;;;;;;;;;;;;;;;;;2217156;66;1228;-67
2022/05/01 04:15:45;;;;;;;;;;;;;;;;;;2218098;66;1193;-68
2022/05/01 04:18:18;;;;;;;;;;;;;;;;;;2216887;66;1286;-68
2022/05/01 04:20:52;;;;;;;;;;;;;;;;;;2216742;58;1577;-68
2022/05/01 04:23:25;;;;;;;;;;;;;;;;;;2218158;59;1372;-68
2022/05/01 04:25:58;;;;;;;;;;;;;;;;;;2217729;66;1146;-67
2022/05/01 04:28:34;;;;;;;;;;;;;;;;;;2213003;59;1570;-67
2022/05/01 04:31:07;;;;;;;;;;;;;;;;;;2218509;66;1983;-65
2022/05/01 04:33:41;;;;;;;;;;;;;;;;;;2217457;66;1246;-65
2022/05/01 04:36:14;;;;;;;;;;;;;;;;;;2217883;66;1151;-65
2022/05/01 04:38:47;;;;;;;;;;;;;;;;;;2217847;66;1258;-65
2022/05/01 04:41:20;;;;;;;;;;;;;;;;;;2217072;58;1283;-65
2022/05/01 04:43:56;;;;;;;;;;;;;;;;;;2217464;58;1266;-65
2022/05/01 04:46:29;;;;;;;;;;;;;;;;;;2218079;66;1264;-65
2022/05/01 04:49:02;;;;;;;;;;;;;;;;;;2216640;58;2025;-65
2022/05/01 04:51:35;;;;;;;;;;;;;;;;;;2217483;66;1947;-65
2022/05/01 04:54:08;;;;;;;;;;;;;;;;;;2216465;59;1618;-65
2022/05/01 04:59:33;;;;;;;;;;;;;;;;;;2217215;58;2161;-65
2022/05/01 05:02:06;;;;;;;;;;;;;;;;;;2216862;58;1208;-66
2022/05/01 05:04:40;;;;;;;;;;;;;;;;;;2217251;59;1103;-65
2022/05/01 05:07:13;;;;;;;;;;;;;;;;;;2217294;58;1678;-65
2022/05/01 05:09:55;;;;;;;;;;;;;;;;;;2217081;58;1975;-65
2022/05/01 05:12:28;;;;;;;;;;;;;;;;;;2216804;58;1250;-65
2022/05/01 05:15:08;;;;;;;;;;;;;;;;;;2217149;66;1131;-65
2022/05/01 05:17:42;;;;;;;;;;;;;;;;;;2217200;66;1221;-65
2022/05/01 05:20:15;;;;;;;;;;;;;;;;;;2218130;58;1544;-65
2022/05/01 05:22:49;;;;;;;;;;;;;;;;;;2217935;58;1404;-65
2022/05/01 05:25:22;;;;;;;;;;;;;;;;;;2217844;66;1172;-65
2022/05/01 05:27:55;;;;;;;;;;;;;;;;;;2216969;58;1823;-65
2022/05/01 05:30:31;;;;;;;;;;;;;;;;;;2217072;66;1927;-65
2022/05/01 05:33:05;;;;;;;;;;;;;;;;;;2216334;58;1600;-65
2022/05/01 05:35:38;;;;;;;;;;;;;;;;;;2216496;66;1182;-65
2022/05/01 05:38:12;;;;;;;;;;;;;;;;;;2217750;66;1167;-65
2022/05/01 05:40:45;;;;;;;;;;;;;;;;;;2216970;66;1087;-65
2022/05/01 05:43:18;;;;;;;;;;;;;;;;;;2213206;59;1409;-65
2022/05/01 05:45:54;;;;;;;;;;;;;;;;;;2217660;66;1098;-65
2022/05/01 05:48:27;;;;;;;;;;;;;;;;;;2217240;58;1795;-65
2022/05/01 05:51:00;;;;;;;;;;;;;;;;;;2216715;66;2028;-65
2022/05/01 05:53:33;;;;;;;;;;;;;;;;;;2216676;58;1572;-65
2022/05/01 05:56:07;;;;;;;;;;;;;;;;;;2217077;66;1124;-65
2022/05/01 05:58:40;;;;;;;;;;;;;;;;;;2212704;59;2403;-65
2022/05/01 06:01:16;;;;;;;;;;;;;;;;;;2218043;66;1199;-65
2022/05/01 06:03:49;;;;;;;;;;;;;;;;;;2217226;58;1412;-65
2022/05/01 06:06:22;;;;;;;;;;;;;;;;;;2216935;59;1236;-66
2022/05/01 06:08:55;;;;;;;;;;;;;;;;;;2217252;58;1822;-65
2022/05/01 06:11:28;;;;;;;;;;;;;;;;;;2215778;66;1988;-65
2022/05/01 06:14:01;;;;;;;;;;;;;;;;;;2216338;66;1176;-65
2022/05/01 06:16:38;;;;;;;;;;;;;;;;;;2214483;66;1236;-65
2022/05/01 06:19:11;;;;;;;;;;;;;;;;;;2217285;59;1269;-65
2022/05/01 06:21:44;;;;;;;;;;;;;;;;;;2218394;58;1872;-65
2022/05/01 06:24:17;;;;;;;;;;;;;;;;;;2217048;58;1715;-65
2022/05/01 06:26:50;;;;;;;;;;;;;;;;;;2216371;58;1733;-65
2022/05/01 06:29:23;;;;;;;;;;;;;;;;;;2216915;66;1083;-65
2022/05/01 06:31:59;;;;;;;;;;;;;;;;;;2217097;66;1994;-65
2022/05/01 06:34:35;;;;;;;;;;;;;;;;;;2215734;66;1118;-65
2022/05/01 06:37:08;;;;;;;;;;;;;;;;;;2217596;66;1187;-65
2022/05/01 06:39:41;;;;;;;;;;;;;;;;;;2216937;66;1118;-65
2022/05/01 06:42:15;;;;;;;;;;;;;;;;;;2217221;58;1192;-66
2022/05/01 06:44:48;;;;;;;;;;;;;;;;;;2213589;59;1548;-66
2022/05/01 06:47:24;;;;;;;;;;;;;;;;;;2217113;58;1731;-65
2022/05/01 06:49:57;;;;;;;;;;;;;;;;;;2216372;66;1933;-65
2022/05/01 06:52:30;;;;;;;;;;;;;;;;;;2213554;66;1496;-66
2022/05/01 06:55:03;;;;;;;;;;;;;;;;;;2217196;58;1646;-66
2022/05/01 06:57:36;;;;;;;;;;;;;;;;;;2216035;58;2011;-66
2022/05/01 07:00:11;;;;;;;;;;;;;;;;;;2216209;59;1732;-66
2022/05/01 07:02:49;;;;;;;;;;;;;;;;;;2217140;58;1169;-66
2022/05/01 07:05:23;;;;;;;;;;;;;;;;;;2217250;66;1104;-66
2022/05/01 07:07:56;;;;;;;;;;;;;;;;;;2212395;59;2149;-66
2022/05/01 07:10:29;;;;;;;;;;;;;;;;;;2217448;66;1944;-66
2022/05/01 07:13:02;;;;;;;;;;;;;;;;;;2215852;59;1169;-66
2022/05/01 07:15:35;;;;;;;;;;;;;;;;;;2216339;66;1367;-67
2022/05/01 07:18:12;;;;;;;;;;;;;;;;;;2217080;59;1324;-66
2022/05/01 07:20:46;;;;;;;;;;;;;;;;;;2217636;58;1659;-66
2022/05/01 07:23:22;;;;;;;;;;;;;;;;;;2217139;58;1385;-66
2022/05/01 07:25:55;;;;;;;;;;;;;;;;;;2216795;66;1104;-66
2022/05/01 07:28:29;;;;;;;;;;;;;;;;;;2217775;58;1822;-66
2022/05/01 07:31:03;;;;;;;;;;;;;;;;;;2216862;66;1933;-66
2022/05/01 07:33:39;;;;;;;;;;;;;;;;;;2217323;59;1082;-66
2022/05/01 07:36:12;;;;;;;;;;;;;;;;;;2216953;58;2031;-66
2022/05/01 07:38:46;;;;;;;;;;;;;;;;;;2216385;58;1805;-67
2022/05/01 07:41:19;;;;;;;;;;;;;;;;;;2217456;66;1228;-67
2022/05/01 07:43:53;;;;;;;;;;;;;;;;;;2214532;59;1657;-67
2022/05/01 07:46:27;;;;;;;;;;;;;;;;;;2217505;66;1192;-66
2022/05/01 07:49:03;;;;;;;;;;;;;;;;;;2213016;58;1921;-66
2022/05/01 07:51:36;;;;;;;;;;;;;;;;;;2216424;59;1933;-66
2022/05/01 07:54:09;;;;;;;;;;;;;;;;;;2216809;58;1957;-66
2022/05/01 07:56:42;;;;;;;;;;;;;;;;;;2216668;58;1975;-66
2022/05/01 07:59:16;;;;;;;;;;;;;;;;;;2212844;59;1941;-67
2022/05/01 08:01:49;;;;;;;;;;;;;;;;;;2217231;58;1951;-67
2022/05/01 08:04:28;;;;;;;;;;;;;;;;;;2216576;59;1097;-67
2022/05/01 08:07:02;;;;;;;;;;;;;;;;;;2215938;58;1727;-67
2022/05/01 08:09:35;;;;;;;;;;;;;;;;;;2216992;58;1262;-66
2022/05/01 08:12:09;;;;;;;;;;;;;;;;;;2217688;66;1988;-66
2022/05/01 08:14:44;;;;;;;;;;;;;;;;;;2216898;66;1106;-66
2022/05/01 08:17:17;;;;;;;;;;;;;;;;;;2217784;59;1239;-65
2022/05/01 08:22:42;;;;;;;;;;;;;;;;;;2217113;59;1260;-66
2022/05/01 08:25:15;;;;;;;;;;;;;;;;;;2217744;59;1147;-66
2022/05/01 08:27:48;;;;;;;;;;;;;;;;;;2216840;58;1736;-66
2022/05/01 08:30:21;;;;;;;;;;;;;;;;;;2217162;58;1147;-65
2022/05/01 08:32:55;;;;;;;;;;;;;;;;;;2216716;59;1975;-65
2022/05/01 08:35:31;;;;;;;;;;;;;;;;;;2216511;58;1741;-66
2022/05/01 08:38:07;;;;;;;;;;;;;;;;;;2217390;58;1611;-65
2022/05/01 08:40:40;;;;;;;;;;;;;;;;;;2216444;59;1708;-66
2022/05/01 08:43:16;;;;;;;;;;;;;;;;;;2216134;66;1098;-65
2022/05/01 08:45:56;;;;;;;;;;;;;;;;;;2217421;58;1165;-66
2022/05/01 08:48:32;;;;;;;;;;;;;;;;;;2217241;58;1763;-65
2022/05/01 08:51:09;;;;;;;;;;;;;;;;;;2217162;66;1927;-66
2022/05/01 08:53:43;;;;;;;;;;;;;;;;;;2217520;66;1780;-66
2022/05/01 08:56:17;;;;;;;;;;;;;;;;;;2217095;66;1223;-66
2022/05/01 08:58:50;;;;;;;;;;;;;;;;;;2217608;58;2162;-65
2022/05/01 09:01:23;;;;;;;;;;;;;;;;;;2217656;59;1230;-66
2022/05/01 09:03:57;;;;;;;;;;;;;;;;;;2216389;66;1204;-66
2022/05/01 09:06:34;;;;;;;;;;;;;;;;;;2214268;58;1575;-66
2022/05/01 09:09:08;;;;;;;;;;;;;;;;;;2216157;58;1892;-66
2022/05/01 09:14:30;;;;;;;;;;;;;;;;;;2216742;59;1431;-65
2022/05/01 09:17:13;;;;;;;;;;;;;;;;;;2216503;59;2551;-66
2022/05/01 09:19:48;;;;;;;;;;;;;;;;;;2217890;59;1145;-66
2022/05/01 09:22:24;;;;;;;;;;;;;;;;;;2217916;58;1458;-66
2022/05/01 09:24:58;;;;;;;;;;;;;;;;;;2218311;58;1723;-66
2022/05/01 09:27:32;;;;;;;;;;;;;;;;;;2216789;58;1720;-65
2022/05/01 09:30:12;;;;;;;;;;;;;;;;;;2216697;59;1650;-66
2022/05/01 09:32:46;;;;;;;;;;;;;;;;;;2218225;59;1933;-66
2022/05/01 09:35:29;;;;;;;;;;;;;;;;;;2217490;66;1136;-66
2022/05/01 09:38:17;;;;;;;;;;;;;;;;;;2218915;66;1270;-65
2022/05/01 09:40:52;;;;;;;;;;;;;;;;;;2217605;66;1107;-65
2022/05/01 09:43:35;;;;;;;;;;;;;;;;;;2217849;59;1302;-66
2022/05/01 09:46:12;;;;;;;;;;;;;;;;;;2218022;59;1208;-66
2022/05/01 09:48:46;;;;;;;;;;;;;;;;;;2216100;58;1836;-65
2022/05/01 09:51:20;;;;;;;;;;;;;;;;;;2216949;58;2430;-66
2022/05/01 09:53:56;;;;;;;;;;;;;;;;;;2217336;58;2439;-67
2022/05/01 09:56:29;;;;;;;;;;;;;;;;;;2216727;58;1830;-66
2022/05/01 09:59:03;;;;;;;;;;;;;;;;;;2217324;58;2174;-66
2022/05/01 10:01:37;;;;;;;;;;;;;;;;;;2216466;58;1412;-66
2022/05/01 10:04:10;;;;;;;;;;;;;;;;;;2216806;58;2421;-66
2022/05/01 10:06:43;;;;;;;;;;;;;;;;;;2217510;58;2237;-66
2022/05/01 10:09:20;;;;;;;;;;;;;;;;;;2216463;58;2326;-66
2022/05/01 10:11:55;;;;;;;;;;;;;;;;;;2213085;58;2473;-66
2022/05/01 10:14:29;;;;;;;;;;;;;;;;;;2216226;58;1441;-66
2022/05/01 10:17:03;;;;;;;;;;;;;;;;;;2217017;59;2580;-66
2022/05/01 10:19:37;;;;;;;;;;;;;;;;;;2215644;58;2577;-66
2022/05/01 10:22:10;;;;;;;;;;;;;;;;;;2217780;58;1837;-66
2022/05/01 10:24:46;;;;;;;;;;;;;;;;;;2216577;58;1827;-66
2022/05/01 10:27:27;;;;;;;;;;;;;;;;;;2217497;58;1808;-66
2022/05/01 10:33:22;;;;;;;;;;;;;;;;;;2215634;59;1991;-67
2022/05/01 10:36:02;;;;;;;;;;;;;;;;;;2217841;59;1156;-66
2022/05/01 10:38:42;;;;;;;;;;;;;;;;;;2217334;59;1419;-66
2022/05/01 10:41:18;;;;;;;;;;;;;;;;;;2217684;66;1195;-66
2022/05/01 10:43:58;;;;;;;;;;;;;;;;;;2217740;58;1160;-66
2022/05/01 10:46:32;;;;;;;;;;;;;;;;;;2217016;59;1284;-66
2022/05/01 10:49:06;;;;;;;;;;;;;;;;;;2217132;58;1950;-66
2022/05/01 10:51:48;;;;;;;;;;;;;;;;;;2216779;58;1994;-66
2022/05/01 10:54:36;;;;;;;;;;;;;;;;;;2217855;59;1492;-66
2022/05/01 10:57:17;;;;;;;;;;;;;;;;;;2217875;58;1321;-66
2022/05/01 10:59:51;;;;;;;;;;;;;;;;;;2217103;66;1223;-66
2022/05/01 11:02:43;;;;;;;;;;;;;;;;;;2218267;59;1837;-66
2022/05/01 11:05:31;;;;;;;;;;;;;;;;;;2216228;59;1254;-66
2022/05/01 11:08:04;;;;;;;;;;;;;;;;;;2216702;58;1711;-66
2022/05/01 11:10:39;;;;;;;;;;;;;;;;;;2217235;66;1141;-66
2022/05/01 11:13:18;;;;;;;;;;;;;;;;;;2216295;58;1935;-67
2022/05/01 11:15:52;;;;;;;;;;;;;;;;;;2218523;66;1317;-66
2022/05/01 11:18:32;;;;;;;;;;;;;;;;;;2216232;59;2485;-65
2022/05/01 11:21:27;;;;;;;;;;;;;;;;;;2213539;59;2255;-65
2022/05/01 11:24:01;;;;;;;;;;;;;;;;;;2216558;59;2007;-65
2022/05/01 11:26:35;;;;;;;;;;;;;;;;;;2217604;66;1179;-65
2022/05/01 11:29:14;;;;;;;;;;;;;;;;;;2216789;58;2108;-65
2022/05/01 11:31:52;;;;;;;;;;;;;;;;;;2217964;66;1940;-67
2022/05/01 11:34:34;;;;;;;;;;;;;;;;;;2217184;58;1170;-67
2022/05/01 11:37:09;;;;;;;;;;;;;;;;;;2217367;66;1230;-67
2022/05/01 11:40:01;;;;;;;;;;;;;;;;;;2214002;66;1111;-68
2022/05/01 11:42:38;;;;;;;;;;;;;;;;;;2218023;66;1162;-67
2022/05/01 11:45:14;;;;;;;;;;;;;;;;;;2217126;58;1289;-68
2022/05/01 11:47:50;;;;;;;;;;;;;;;;;;2217453;58;2099;-67
2022/05/01 11:50:25;;;;;;;;;;;;;;;;;;2216463;66;1196;-67
2022/05/01 11:52:59;;;;;;;;;;;;;;;;;;2217202;66;1927;-68
2022/05/01 12:04:25;;;;;;;;;;;;;;;;;;2217953;59;1683;-67
2022/05/01 12:07:02;;;;;;;;;;;;;;;;;;2216094;58;1755;-67
2022/05/01 12:09:37;;;;;;;;;;;;;;;;;;2217688;59;1173;-67
2022/05/01 12:12:12;;;;;;;;;;;;;;;;;;2218048;58;1983;-68
2022/05/01 12:14:46;;;;;;;;;;;;;;;;;;2218080;59;1295;-68
2022/05/01 12:17:22;;;;;;;;;;;;;;;;;;2217608;66;1201;-67
2022/05/01 12:19:55;;;;;;;;;;;;;;;;;;2216634;58;2449;-67
2022/05/01 12:22:37;;;;;;;;;;;;;;;;;;2216098;59;2255;-67
2022/05/01 12:25:12;;;;;;;;;;;;;;;;;;2216625;59;1172;-67
2022/05/01 12:27:48;;;;;;;;;;;;;;;;;;2217685;58;1682;-67
2022/05/01 12:30:22;;;;;;;;;;;;;;;;;;2217526;59;1181;-67
2022/05/01 12:32:58;;;;;;;;;;;;;;;;;;2217386;58;1929;-67
2022/05/01 12:35:31;;;;;;;;;;;;;;;;;;2217903;59;1185;-66
2022/05/01 12:38:05;;;;;;;;;;;;;;;;;;2217528;59;1278;-66
2022/05/01 12:46:29;;;;;;;;;;;;;;;;;;2218130;58;2539;-67
2022/05/01 12:49:05;;;;;;;;;;;;;;;;;;2216344;58;2730;-67
2022/05/01 12:51:41;;;;;;;;;;;;;;;;;;2217826;58;2590;-67
2022/05/01 12:54:17;;;;;;;;;;;;;;;;;;2217425;58;3015;-66
2022/05/01 12:56:50;;;;;;;;;;;;;;;;;;2217035;58;2707;-67
2022/05/01 12:59:27;;;;;;;;;;;;;;;;;;2218740;58;2922;-67
2022/05/01 13:02:02;;;;;;;;;;;;;;;;;;2217378;58;2658;-66
2022/05/01 13:04:38;;;;;;;;;;;;;;;;;;2216696;66;1098;-66
2022/05/01 13:07:11;;;;;;;;;;;;;;;;;;2217328;58;1763;-67
2022/05/01 13:09:51;;;;;;;;;;;;;;;;;;2219798;53;3745;-74
2022/05/01 13:12:32;;;;;;;;;;;;;;;;;;2223269;58;2720;-73
2022/05/01 13:15:08;;;;;;;;;;;;;;;;;;2221191;58;2299;-74
2022/05/01 13:17:41;;;;;;;;;;;;;;;;;;2224102;58;2356;-73
2022/05/01 13:20:17;;;;;;;;;;;;;;;;;;2219575;59;2588;-73
2022/05/01 13:22:51;;;;;;;;;;;;;;;;;;2220239;58;2510;-73
2022/05/01 13:25:24;;;;;;;;;;;;;;;;;;2220486;58;2361;-73
2022/05/01 13:27:57;;;;;;;;;;;;;;;;;;2221200;58;2203;-73
2022/05/01 13:30:30;;;;;;;;;;;;;;;;;;2220249;58;1201;-73
2022/05/01 13:33:03;;;;;;;;;;;;;;;;;;2220879;66;1995;-73
2022/05/01 13:35:39;;;;;;;;;;;;;;;;;;2220456;58;1622;-73
2022/05/01 13:38:13;;;;;;;;;;;;;;;;;;2221140;58;1247;-73
2022/05/01 13:46:35;;;;;;;;;;;;;;;;;;2205306;67;1500;-73
2022/05/01 13:49:08;;;;;;;;;;;;;;;;;;2217205;58;1758;-73
2022/05/01 13:51:44;;;;;;;;;;;;;;;;;;2220649;58;1250;-73
2022/05/01 13:54:17;;;;;;;;;;;;;;;;;;2220691;58;1974;-72
2022/05/01 13:56:51;;;;;;;;;;;;;;;;;;2220326;58;1969;-73
2022/05/01 13:59:24;;;;;;;;;;;;;;;;;;2221265;58;2057;-73
2022/05/01 14:01:58;;;;;;;;;;;;;;;;;;2220667;58;1614;-73
2022/05/01 14:04:32;;;;;;;;;;;;;;;;;;2220612;66;1223;-73
2022/05/01 14:07:08;;;;;;;;;;;;;;;;;;2220175;58;1192;-74
2022/05/01 14:09:41;;;;;;;;;;;;;;;;;;2218912;58;1836;-73
2022/05/01 14:12:15;;;;;;;;;;;;;;;;;;2220068;66;1305;-73
2022/05/01 14:14:48;;;;;;;;;;;;;;;;;;2219957;66;1239;-73
2022/05/01 14:17:21;;;;;;;;;;;;;;;;;;2220658;58;2331;-73
2022/05/01 14:19:57;;;;;;;;;;;;;;;;;;2220234;58;1515;-73
2022/05/01 14:22:34;;;;;;;;;;;;;;;;;;2220825;66;1236;-73
2022/05/01 14:25:07;;;;;;;;;;;;;;;;;;2219689;58;1121;-73
2022/05/01 14:27:40;;;;;;;;;;;;;;;;;;2219909;58;1780;-73
2022/05/01 14:30:14;;;;;;;;;;;;;;;;;;2221573;59;1093;-73
2022/05/01 14:32:49;;;;;;;;;;;;;;;;;;2219823;58;1976;-73
2022/05/01 14:35:23;;;;;;;;;;;;;;;;;;2217528;59;1393;-73
2022/05/01 14:38:00;;;;;;;;;;;;;;;;;;2220584;66;1215;-73
2022/05/01 14:40:36;;;;;;;;;;;;;;;;;;2220383;58;1225;-74
2022/05/01 14:43:12;;;;;;;;;;;;;;;;;;2216377;59;1830;-73
2022/05/01 14:45:49;;;;;;;;;;;;;;;;;;2220778;58;1512;-73
2022/05/01 14:48:28;;;;;;;;;;;;;;;;;;2220185;58;1729;-73
2022/05/01 14:51:02;;;;;;;;;;;;;;;;;;2221924;58;1175;-73
2022/05/01 14:53:39;;;;;;;;;;;;;;;;;;2220129;58;1937;-73
2022/05/01 14:56:16;;;;;;;;;;;;;;;;;;2220529;58;1247;-73
2022/05/01 15:07:30;;;;;;;;;;;;;;;;;;2219074;58;1866;-74
2022/05/01 15:10:06;;;;;;;;;;;;;;;;;;2220742;58;1574;-74
2022/05/01 15:12:39;;;;;;;;;;;;;;;;;;2219762;58;1936;-72
2022/05/01 15:15:13;;;;;;;;;;;;;;;;;;2220890;66;1088;-73
2022/05/01 15:17:49;;;;;;;;;;;;;;;;;;2220652;66;1178;-73
2022/05/01 15:20:26;;;;;;;;;;;;;;;;;;2221049;58;1572;-74
2022/05/01 15:23:08;;;;;;;;;;;;;;;;;;2219877;59;1070;-74
2022/05/01 15:25:45;;;;;;;;;;;;;;;;;;2221071;66;1253;-74
2022/05/01 15:28:21;;;;;;;;;;;;;;;;;;2220706;58;1822;-73
2022/05/01 15:30:55;;;;;;;;;;;;;;;;;;2221042;58;1368;-74
2022/05/01 15:36:22;;;;;;;;;;;;;;;;;;2220037;58;1608;-74
2022/05/01 15:38:57;;;;;;;;;;;;;;;;;;2220633;58;1208;-74
2022/05/01 15:41:44;;;;;;;;;;;;;;;;;;2220393;66;1249;-74
2022/05/01 15:44:19;;;;;;;;;;;;;;;;;;2220050;58;1789;-74
2022/05/01 15:46:58;;;;;;;;;;;;;;;;;;2221194;58;1184;-74
2022/05/01 15:55:13;;;;;;;;;;;;;;;;;;2220868;58;1932;-73
2022/05/01 15:57:49;;;;;;;;;;;;;;;;;;2221310;58;2108;-74
2022/05/01 16:00:23;;;;;;;;;;;;;;;;;;2221822;66;1242;-73
2022/05/01 16:02:57;;;;;;;;;;;;;;;;;;2220694;58;1227;-73
2022/05/01 16:05:31;;;;;;;;;;;;;;;;;;2221652;58;1478;-74
2022/05/01 16:08:09;;;;;;;;;;;;;;;;;;2217146;58;1804;-73
2022/05/01 16:10:44;;;;;;;;;;;;;;;;;;2221623;58;1960;-73
2022/05/01 16:13:23;;;;;;;;;;;;;;;;;;2221361;66;1925;-73
2022/05/01 16:16:00;;;;;;;;;;;;;;;;;;2221871;59;1149;-73
2022/05/01 16:18:37;;;;;;;;;;;;;;;;;;2220582;58;1243;-73
2022/05/01 16:21:14;;;;;;;;;;;;;;;;;;2220429;66;1618;-73
2022/05/01 16:23:52;;;;;;;;;;;;;;;;;;2218036;58;1569;-74
2022/05/01 16:26:28;;;;;;;;;;;;;;;;;;2218094;58;1752;-73
2022/05/01 16:29:08;;;;;;;;;;;;;;;;;;2221223;58;1802;-74
2022/05/01 16:31:46;;;;;;;;;;;;;;;;;;2220419;59;2605;-74
2022/05/01 16:34:25;;;;;;;;;;;;;;;;;;2219485;58;2596;-74
2022/05/01 16:37:00;;;;;;;;;;;;;;;;;;2221738;58;1115;-74
2022/05/01 16:39:33;;;;;;;;;;;;;;;;;;2220749;66;1205;-74
2022/05/01 16:42:08;;;;;;;;;;;;;;;;;;2221223;66;1251;-73
2022/05/01 16:44:45;;;;;;;;;;;;;;;;;;2220251;58;1250;-73
2022/05/01 16:47:19;;;;;;;;;;;;;;;;;;2220189;58;1201;-72
2022/05/01 16:49:53;;;;;;;;;;;;;;;;;;2221000;58;1932;-72
2022/05/01 16:52:26;;;;;;;;;;;;;;;;;;2219630;66;1173;-73
2022/05/01 16:55:00;;;;;;;;;;;;;;;;;;2221223;58;1935;-73
2022/05/01 16:57:36;;;;;;;;;;;;;;;;;;2217565;58;2328;-72
2022/05/01 17:00:14;;;;;;;;;;;;;;;;;;2220803;58;1621;-72
2022/05/01 17:02:53;;;;;;;;;;;;;;;;;;2221939;59;1227;-72
2022/05/01 17:05:30;;;;;;;;;;;;;;;;;;2221678;59;1357;-73
2022/05/01 17:08:12;;;;;;;;;;;;;;;;;;2220829;58;1967;-73
2022/05/01 17:10:49;;;;;;;;;;;;;;;;;;2220694;58;1120;-73
2022/05/01 17:13:31;;;;;;;;;;;;;;;;;;2221480;66;1933;-72
2022/05/01 17:16:14;;;;;;;;;;;;;;;;;;2221398;66;1065;-72
2022/05/01 17:18:53;;;;;;;;;;;;;;;;;;2220423;58;1270;-72
2022/05/01 17:21:31;;;;;;;;;;;;;;;;;;2221360;58;1605;-73
2022/05/01 17:24:05;;;;;;;;;;;;;;;;;;2221592;66;1176;-72
2022/05/01 17:26:43;;;;;;;;;;;;;;;;;;2220645;58;1735;-72
2022/05/01 17:29:19;;;;;;;;;;;;;;;;;;2220016;58;1951;-72
2022/05/01 17:31:57;;;;;;;;;;;;;;;;;;2221287;58;1384;-73
2022/05/01 17:34:31;;;;;;;;;;;;;;;;;;2219799;58;2769;-72
2022/05/01 17:37:07;;;;;;;;;;;;;;;;;;2216370;58;1256;-73
2022/05/01 17:39:41;;;;;;;;;;;;;;;;;;2220595;58;1804;-73
2022/05/01 17:42:14;;;;;;;;;;;;;;;;;;2221294;58;1915;-72
2022/05/01 17:44:48;;;;;;;;;;;;;;;;;;2221251;58;1807;-72
2022/05/01 17:47:25;;;;;;;;;;;;;;;;;;2220621;58;1848;-72
2022/05/01 17:50:00;;;;;;;;;;;;;;;;;;2220843;58;1846;-72
2022/05/01 17:52:35;;;;;;;;;;;;;;;;;;2220100;66;1109;-72
2022/05/01 17:55:09;;;;;;;;;;;;;;;;;;2220660;58;1932;-72
2022/05/01 17:57:43;;;;;;;;;;;;;;;;;;2219770;58;2103;-72
2022/05/01 18:00:18;;;;;;;;;;;;;;;;;;2221271;66;1204;-72
2022/05/01 18:03:09;;;;;;;;;;;;;;;;;;2219872;59;1374;-72
2022/05/01 18:11:39;;;;;;;;;;;;;;;;;;2221213;58;1290;-72
2022/05/01 18:14:15;;;;;;;;;;;;;;;;;;2220845;66;1927;-73
2022/05/01 18:16:54;;;;;;;;;;;;;;;;;;2220730;58;1076;-72
2022/05/01 18:19:30;;;;;;;;;;;;;;;;;;2219959;58;1261;-72
2022/05/01 18:22:10;;;;;;;;;;;;;;;;;;2221417;58;1481;-72
2022/05/01 18:24:46;;;;;;;;;;;;;;;;;;2220120;66;1076;-72
2022/05/01 18:27:21;;;;;;;;;;;;;;;;;;2217081;58;1742;-72
2022/05/01 18:30:17;;;;;;;;;;;;;;;;;;2219397;58;3082;-72
2022/05/01 18:33:06;;;;;;;;;;;;;;;;;;2219303;66;1055;-72
2022/05/01 18:35:43;;;;;;;;;;;;;;;;;;2219546;59;2912;-72
2022/05/01 18:38:28;;;;;;;;;;;;;;;;;;2220044;66;1204;-72
2022/05/01 18:41:03;;;;;;;;;;;;;;;;;;2220607;66;1111;-72
2022/05/01 18:43:38;;;;;;;;;;;;;;;;;;2219184;66;1085;-72
2022/05/01 18:46:13;;;;;;;;;;;;;;;;;;2215313;66;1725;-72
2022/05/01 18:48:48;;;;;;;;;;;;;;;;;;2219337;58;1710;-72
2022/05/01 18:51:23;;;;;;;;;;;;;;;;;;2220051;58;1209;-72
2022/05/01 18:54:01;;;;;;;;;;;;;;;;;;2220300;58;2003;-72
2022/05/01 18:56:35;;;;;;;;;;;;;;;;;;2215442;58;2092;-72
2022/05/01 18:59:09;;;;;;;;;;;;;;;;;;2214595;58;2688;-72
2022/05/01 19:01:43;;;;;;;;;;;;;;;;;;2219589;58;1588;-72
2022/05/01 19:04:16;;;;;;;;;;;;;;;;;;2218637;58;1321;-72
2022/05/01 19:06:55;;;;;;;;;;;;;;;;;;2217881;59;1136;-72
2022/05/01 19:09:39;;;;;;;;;;;;;;;;;;2211391;53;3593;-72
2022/05/01 19:12:21;;;;;;;;;;;;;;;;;;2208222;59;1574;-72